DGPHX EDML-EDML

Flight info

Callsign DGPHX
Flight time 0h 15m
Altitude 5000
Route /
Aircraft DA62/L-V/N

Departure

Time 2026-04-19 10:19
Airport Landshut Airfield (EDML)

Arrival

Time 2026-04-19 10:34
Airport Landshut Airfield (EDML)
Time Latitude Longitude Altitude Speed Heading
2026-04-19 10:16 48.51335 12.03599 1321 ft 0 kts 334°
2026-04-19 10:17 48.51337 12.03593 1321 ft 1 kts 251°
2026-04-19 10:17 48.51313 12.03677 1322 ft 16 kts 56°
2026-04-19 10:18 48.51340 12.03868 1319 ft 13 kts 173°
2026-04-19 10:18 48.51233 12.03559 1323 ft 61 kts 248°
2026-04-19 10:18 48.51023 12.02826 1445 ft 84 kts 239°
2026-04-19 10:19 48.50317 12.01196 2054 ft 104 kts 233°
2026-04-19 10:19 48.49910 12.00257 2333 ft 109 kts 241°
2026-04-19 10:19 48.49602 11.99142 2491 ft 126 kts 249°
2026-04-19 10:19 48.49247 11.97822 2493 ft 144 kts 249°
2026-04-19 10:20 48.48849 11.96385 2491 ft 153 kts 248°
2026-04-19 10:20 48.48437 11.94873 2490 ft 159 kts 248°
2026-04-19 10:20 48.48030 11.93323 2488 ft 160 kts 248°
2026-04-19 10:20 48.47601 11.91762 2491 ft 162 kts 248°
2026-04-19 10:21 48.47175 11.90181 2491 ft 163 kts 250°
2026-04-19 10:21 48.46925 11.88542 2496 ft 161 kts 261°
2026-04-19 10:21 48.46793 11.86928 2492 ft 152 kts 263°
2026-04-19 10:21 48.46656 11.85365 2487 ft 148 kts 262°
2026-04-19 10:22 48.46515 11.83846 2482 ft 146 kts 262°
2026-04-19 10:22 48.46316 11.82397 2491 ft 139 kts 246°
2026-04-19 10:22 48.45704 11.81300 2489 ft 141 kts 215°
2026-04-19 10:22 48.44722 11.81090 2487 ft 150 kts 179°
2026-04-19 10:23 48.43674 11.81332 2491 ft 154 kts 177°
2026-04-19 10:23 48.42623 11.81586 2489 ft 152 kts 178°
2026-04-19 10:23 48.41574 11.81816 2492 ft 153 kts 178°
2026-04-19 10:23 48.40510 11.82046 2487 ft 155 kts 179°
2026-04-19 10:24 48.39452 11.82304 2495 ft 154 kts 178°
2026-04-19 10:24 48.38394 11.82574 2487 ft 154 kts 178°
2026-04-19 10:24 48.37350 11.82779 2489 ft 151 kts 180°
2026-04-19 10:24 48.36320 11.83090 2490 ft 153 kts 176°
2026-04-19 10:25 48.35270 11.83388 2406 ft 159 kts 176°
2026-04-19 10:25 48.34555 11.82686 2232 ft 144 kts 270°
2026-04-19 10:25 48.34523 11.81082 1584 ft 171 kts 265°
2026-04-19 10:25 48.34387 11.79283 1521 ft 172 kts 264°
2026-04-19 10:26 48.34255 11.77530 1550 ft 168 kts 265°
2026-04-19 10:26 48.34120 11.75764 1584 ft 165 kts 265°
2026-04-19 10:26 48.33893 11.74308 2202 ft 137 kts 233°
2026-04-19 10:26 48.32981 11.74054 2383 ft 155 kts 166°
2026-04-19 10:27 48.31981 11.74822 2444 ft 170 kts 144°
2026-04-19 10:27 48.31418 11.76370 2646 ft 180 kts 103°
2026-04-19 10:27 48.31583 11.78228 2759 ft 185 kts 56°
2026-04-19 10:27 48.32415 11.79774 2628 ft 197 kts 45°
2026-04-19 10:28 48.33447 11.81061 2630 ft 190 kts 23°
2026-04-19 10:28 48.34697 11.81807 2474 ft 193 kts 14°
2026-04-19 10:28 48.35973 11.82432 2445 ft 191 kts
2026-04-19 10:28 48.37254 11.82570 2438 ft 182 kts 348°
2026-04-19 10:29 48.38522 11.82369 2430 ft 182 kts 348°
2026-04-19 10:29 48.39776 11.82188 2431 ft 181 kts 349°
2026-04-19 10:29 48.41015 11.81931 2500 ft 178 kts 345°
2026-04-19 10:29 48.42214 11.81579 2545 ft 179 kts 342°
2026-04-19 10:30 48.43425 11.81205 2597 ft 177 kts 342°
2026-04-19 10:30 48.44647 11.80811 2482 ft 183 kts 341°
2026-04-19 10:30 48.45894 11.80476 2535 ft 181 kts 348°
2026-04-19 10:30 48.47101 11.80991 2699 ft 186 kts 34°
2026-04-19 10:31 48.47807 11.82542 2782 ft 192 kts 67°
2026-04-19 10:31 48.48159 11.84532 2756 ft 198 kts 78°
2026-04-19 10:31 48.48403 11.86576 2783 ft 198 kts 81°
2026-04-19 10:31 48.48336 11.88680 2644 ft 205 kts 104°
2026-04-19 10:32 48.47779 11.90651 2513 ft 207 kts 120°
2026-04-19 10:32 48.47660 11.92771 2531 ft 204 kts 75°
2026-04-19 10:32 48.48245 11.94625 2282 ft 187 kts 54°
2026-04-19 10:32 48.49016 11.96154 2152 ft 173 kts 51°
2026-04-19 10:33 48.49645 11.97697 2021 ft 177 kts 60°
2026-04-19 10:33 48.50164 11.99322 2044 ft 170 kts 63°
2026-04-19 10:33 48.50541 12.00960 1695 ft 148 kts 84°
2026-04-19 10:33 48.50797 12.02133 1439 ft 107 kts 82°
2026-04-19 10:34 48.51083 12.03074 1320 ft 89 kts 64°
2026-04-19 10:34 48.51240 12.03576 1323 ft 23 kts 48°
2026-04-19 10:34 48.51355 12.03644 1320 ft 2 kts 336°